This is the latest recevied weather packets stored in our database for station/object AE5EW. If no packets are shown the sender has not sent any weather packets the latest 10 day(s).
| Time | Temp. | Humidity | Pressure | Rain* | Wind** | Luminosity | Snow |
|---|---|---|---|---|---|---|---|
| 1787781630 | 33.33° C | 61% | 1015.3 hPa | 0 mm | - | - | - |
| 1787781328 | 33.89° C | 61% | 1015.1 hPa | 0 mm | - | - | - |
| 1787781027 | 33.89° C | 59% | 1015.5 hPa | 0 mm | - | - | - |
| 1787780721 | 34.44° C | 54% | 1015.3 hPa | 0 mm | - | - | - |
| 1787780421 | 34.44° C | 50% | 1015 hPa | 0 mm | - | - | - |
| 1787780117 | 34.44° C | 56% | 1015.4 hPa | 0 mm | - | - | - |
| 1787779812 | 35.56° C | 51% | 1015.2 hPa | 0 mm | - | - | - |
| 1787779511 | 35.56° C | 50% | 1015.3 hPa | 0 mm | - | - | - |
| 1787779212 | 36.11° C | 46% | 1015.1 hPa | 0 mm | - | - | - |
| 1787778911 | 36.67° C | 47% | 1015.1 hPa | 0 mm | - | - | - |
| 1787778607 | 36.11° C | 46% | 1015.1 hPa | 0 mm | - | - | - |
| 1787778302 | 35.56° C | 47% | 1015.2 hPa | 0 mm | - | - | - |
| 1787777997 | 36.11° C | 46% | 1015.2 hPa | 0 mm | - | - | - |
| 1787777692 | 36.67° C | 48% | 1015.4 hPa | 0 mm | - | - | - |
| 1787777389 | 36.11° C | 47% | 1015.4 hPa | 0 mm | - | - | - |
| 1787777088 | 35.56° C | 50% | 1015.7 hPa | 0 mm | - | - | - |
| 1787776787 | 35.56° C | 48% | 1015.6 hPa | 0 mm | - | - | - |
| 1787776486 | 35.56° C | 47% | 1015.6 hPa | 0 mm | - | - | - |
| 1787776183 | 35° C | 51% | 1016 hPa | 0 mm | - | - | - |
| 1787775878 | 35.56° C | 46% | 1015.8 hPa | 0 mm | - | - | - |
| 1787775573 | 35° C | 50% | 1015.8 hPa | 0 mm | - | - | - |
| 1787775272 | 35° C | 50% | 1015.7 hPa | 0 mm | - | - | - |
| 1787774966 | 35.56° C | 55% | 1015.6 hPa | 0 mm | - | - | - |
| 1787774666 | 35° C | 50% | 1015.7 hPa | 0 mm | - | - | - |
| 1787774364 | 34.44° C | 55% | 1015.7 hPa | 0 mm | - | - | - |
* Rain latest hour (hover to see other rain measurements)
** Current wind speed in m/s (hover to see current wind gust speed)